WA7EBH-15 Weather Reports


Display with metric or nautical units.
time (UTC)temp
F
wind
direction
speed
MPH
gust
MPH
rain 1hr
in
rain 24hr
in
rain mn
in
humidity
%
barometer
mb
20220523112333 47 297 0.0 0.0 0.00 0.00 0.00 100 1022.7
20220523111137 48 297 0.0 0.0 0.00 0.00 0.00 100 1022.6
20220523110240 48 297 0.0 0.0 0.00 0.00 0.00 100 1022.6
20220523105937 47 297 0.0 0.0 0.00 0.00 0.00 100 1022.6
20220523105638 47 297 0.0 0.0 0.00 0.00 0.00 100 1022.5
20220523105339 47 297 0.0 0.0 0.00 0.00 0.00 100 1022.6
20220523105040 47 297 0.0 0.0 0.00 0.00 0.00 100 1022.6
20220523104143 48 297 0.0 0.0 0.00 0.00 0.00 100 1022.7
20220523103844 47 297 0.0 0.0 0.00 0.00 0.00 100 1022.7
20220523103545 48 297 0.0 0.0 0.00 0.00 0.00 100 1022.7
20220523103246 48 297 0.0 0.0 0.00 0.00 0.00 100 1022.6
20220523102943 47 297 0.0 0.0 0.00 0.00 0.00 100 1022.7
20220523102644 47 297 0.0 0.0 0.00 0.00 0.00 100 1022.6
20220523101747 47 297 0.0 0.0 0.00 0.00 0.00 100 1022.6
20220523101149 47 297 0.0 0.0 0.00 0.00 0.00 100 1022.7
20220523100850 47 297 0.0 0.0 0.00 0.00 0.00 100 1022.7
20220523100551 48 297 0.0 0.0 0.00 0.00 0.00 100 1022.7
20220523095950 47 297 0.0 0.0 0.00 0.00 0.00 100 1022.7
20220523095352 47 297 0.0 0.0 0.00 0.00 0.00 100 1022.7
20220523094754 47 297 0.0 0.0 0.00 0.00 0.00 100 1022.8
20220523094455 47 297 0.0 0.0 0.00 0.00 0.00 100 1022.9
20220523093857 47 314 2.0 3.0 0.00 0.00 0.00 100 1022.8
20220523092358 48 311 4.0 4.0 0.00 0.00 0.00 99 1022.8
20220523092059 48 125 0.0 0.0 0.00 0.00 0.00 99 1022.6
20220523090903 49 125 0.0 0.0 0.00 0.00 0.00 99 1022.7
20220523090305 48 125 0.0 0.0 0.00 0.00 0.00 99 1022.7
20220523090003 48 125 0.0 0.0 0.00 0.00 0.00 99 1022.7
20220523085704 48 125 0.0 0.0 0.00 0.00 0.00 99 1022.7
20220523085405 48 125 0.0 0.0 0.00 0.00 0.00 100 1022.7
20220523084807 48 113 4.0 4.0 0.00 0.00 0.00 100 1022.7
20220523084209 48 114 5.0 6.0 0.00 0.00 0.00 100 1022.6
20220523083909 48 134 4.0 4.0 0.00 0.00 0.00 100 1022.6
20220523083311 48 115 4.0 4.0 0.00 0.00 0.00 100 1022.6
20220523082711 48 295 4.0 2.0 0.00 0.00 0.00 100 1022.6
20220523082411 48 271 4.0 3.0 0.00 0.00 0.00 100 1022.5
20220523081813 48 307 5.0 5.0 0.00 0.00 0.00 100 1022.5
20220523081215 48 316 5.0 5.0 0.00 0.00 0.00 100 1022.5
20220523080916 48 302 5.0 4.0 0.00 0.00 0.00 100 1022.5
20220523080318 48 97 2.0 1.0 0.00 0.00 0.00 99 1022.3
20220523075417 49 8 2.0 4.0 0.00 0.00 0.00 99 1022.4
20220523074222 49 246 0.0 0.0 0.00 0.00 0.00 99 1022.6
20220523073922 49 211 3.0 4.0 0.00 0.00 0.00 99 1022.5
20220523073623 49 259 5.0 2.0 0.00 0.00 0.00 99 1022.5
20220523073022 50 300 2.0 3.0 0.00 0.00 0.00 99 1022.5
20220523072425 49 280 4.0 4.0 0.00 0.00 0.00 99 1022.4
20220523072126 49 18 2.0 1.0 0.00 0.00 0.00 98 1022.3
20220523071829 49 70 3.0 2.0 0.00 0.00 0.00 98 1022.3
20220523071527 49 321 3.0 1.0 0.00 0.00 0.00 98 1022.4
20220523071228 50 94 3.0 2.0 0.00 0.00 0.00 98 1022.6
20220523070929 50 340 3.0 1.0 0.00 0.00 0.00 98 1022.5
20220523070630 49 323 5.0 6.0 0.00 0.00 0.00 98 1022.5
20220523070031 50 125 0.0 0.0 0.00 0.00 0.00 98 1022.4
20220523065729 50 125 0.0 0.0 0.00 0.00 0.00 98 1022.4
20220523065430 50 173 3.0 2.0 0.00 0.00 0.00 98 1022.5
20220523065131 50 357 2.0 1.0 0.00 0.00 0.00 98 1022.4
20220523064533 50 266 0.0 0.0 0.00 0.00 0.00 97 1022.6
20220523064234 50 266 0.0 0.0 0.00 0.00 0.00 97 1022.6
20220523063636 50 302 0.0 2.0 0.00 0.00 0.00 97 1022.5
20220523063035 50 293 2.0 2.0 0.00 0.00 0.00 97 1022.4
20220523062437 50 266 1.0 1.0 0.00 0.00 0.00 97 1022.4
20220523061839 50 311 3.0 3.0 0.00 0.00 0.00 96 1022.3
20220523061540 51 328 2.0 4.0 0.00 0.00 0.00 96 1022.4
20220523061241 51 328 1.0 2.0 0.00 0.00 0.00 96 1022.3
20220523060942 51 97 0.0 0.0 0.00 0.00 0.00 96 1022.4
20220523060643 51 97 0.0 0.0 0.00 0.00 0.00 96 1022.3
20220523060344 51 97 0.0 0.0 0.00 0.00 0.00 96 1022.3
20220523060041 51 142 3.0 2.0 0.00 0.00 0.00 96 1022.3
20220523055742 51 121 4.0 4.0 0.00 0.00 0.00 95 1022.3
20220523055443 52 120 2.0 3.0 0.00 0.00 0.00 95 1022.3
20220523054846 51 174 1.0 1.0 0.00 0.00 0.00 95 1022.4
20220523054546 52 141 2.0 3.0 0.00 0.00 0.00 95 1022.4
20220523054247 52 113 2.0 3.0 0.00 0.00 0.00 95 1022.3
20220523053948 52 105 2.0 1.0 0.00 0.00 0.00 95 1022.4
20220523053649 52 72 0.0 0.0 0.00 0.00 0.00 95 1022.4
20220523053048 52 72 0.0 0.0 0.00 0.00 0.00 95 1022.4
20220523052449 52 72 0.0 0.0 0.00 0.00 0.00 95 1022.3
20220523050955 53 72 0.0 0.0 0.00 0.00 0.00 93 1022.3
20220523050655 53 79 1.0 1.0 0.00 0.00 0.00 93 1022.4
20220523050054 53 114 3.0 3.0 0.00 0.00 0.00 92 1022.4
20220523045755 53 160 2.0 2.0 0.00 0.00 0.00 91 1022.5
20220523045157 53 131 2.0 1.0 0.00 0.00 0.00 91 1022.5
20220523044858 54 128 2.0 1.0 0.00 0.00 0.00 90 1022.5
20220523044559 54 125 2.0 2.0 0.00 0.00 0.00 90 1022.6
20220523043702 54 124 3.0 3.0 0.00 0.00 0.00 89 1022.6
20220523041904 54 284 1.0 1.0 0.00 0.00 0.00 87 1022.5
20220523034911 55 233 0.0 0.0 0.00 0.00 0.00 85 1022.5
20220523034313 55 235 0.0 0.0 0.00 0.00 0.00 85 1022.5
20220523033416 55 318 0.0 0.0 0.00 0.00 0.00 84 1022.5
20220523033114 55 276 0.0 0.0 0.00 0.00 0.00 84 1022.5
20220523032814 55 238 2.0 1.0 0.00 0.00 0.00 84 1022.5
20220523032515 55 283 1.0 0.0 0.00 0.00 0.00 84 1022.6
20220523030422 56 274 6.0 3.0 0.00 0.00 0.00 82 1022.6
20220523025821 56 250 4.0 2.0 0.00 0.00 0.00 82 1022.7
20220523025522 56 305 5.0 6.0 0.00 0.00 0.00 81 1022.7
20220523024625 57 276 6.0 5.0 0.00 0.00 0.00 81 1022.6
20220523024326 57 307 5.0 3.0 0.00 0.00 0.00 81 1022.6
20220523023728 57 305 5.0 5.0 0.00 0.00 0.00 80 1022.6
20220523021931 58 215 3.0 6.0 0.00 0.00 0.00 82 1022.6
20220523021632 57 222 3.0 2.0 0.00 0.00 0.00 83 1022.7
20220523021332 57 276 6.0 3.0 0.00 0.00 0.00 83 1022.7
20220523021033 57 300 5.0 2.0 0.00 0.00 0.00 84 1022.7
20220523020734 57 262 4.0 5.0 0.00 0.00 0.00 84 1022.7
20220523020435 57 285 4.0 4.0 0.00 0.00 0.00 85 1022.8
20220523015835 57 283 3.0 1.0 0.00 0.00 0.00 84 1022.7
20220523015535 57 298 6.0 6.0 0.00 0.00 0.00 84 1022.7
20220523015236 58 264 2.0 6.0 0.00 0.00 0.00 85 1022.7
20220523014937 58 302 3.0 2.0 0.00 0.00 0.00 84 1022.8
20220523014040 58 15 1.0 2.0 0.00 0.00 0.00 84 1022.8
20220523013442 58 269 1.0 1.0 0.00 0.00 0.00 83 1022.8
20220523011943 58 301 2.0 0.0 0.00 0.00 0.00 83 1022.9
20220523010747 58 314 3.0 5.0 0.00 0.00 0.00 83 1023.1
20220523010146 58 266 4.0 4.0 0.00 0.00 0.00 83 1023.1
20220523004651 59 339 5.0 3.0 0.00 0.00 0.00 80 1023.1
20220523004352 58 301 6.0 5.0 0.00 0.00 0.00 79 1023.2
20220523004053 59 321 7.0 3.0 0.00 0.00 0.00 79 1023.2
20220523003152 58 325 5.0 6.0 0.00 0.00 0.00 79 1023.3
20220523002853 58 319 3.0 7.0 0.00 0.00 0.00 79 1023.3
20220523002255 59 314 6.0 6.0 0.00 0.00 0.00 78 1023.4
20220523001657 59 305 4.0 6.0 0.00 0.00 0.00 80 1023.5
20220523001358 59 314 6.0 4.0 0.00 0.00 0.00 78 1023.5
20220523000159 60 332 4.0 6.0 0.00 0.00 0.00 75 1023.6
20220522235900 60 245 7.0 8.0 0.00 0.00 0.00 74 1023.5
20220522235601 60 281 4.0 5.0 0.00 0.00 0.00 72 1023.7
20220522235302 60 214 5.0 4.0 0.00 0.00 0.00 73 1023.7
20220522235002 60 308 5.0 7.0 0.00 0.00 0.00 73 1023.7
20220522233807 59 302 6.0 7.0 0.00 0.00 0.00 76 1023.7
20220522233507 59 359 6.0 4.0 0.00 0.00 0.00 75 1023.8
20220522232906 59 318 4.0 2.0 0.00 0.00 0.00 75 1023.8
20220522231112 59 271 8.0 3.0 0.00 0.00 0.00 72 1023.8
20220522230813 59 273 5.0 4.0 0.00 0.00 0.00 74 1023.8
20220522230514 59 262 8.0 4.0 0.00 0.00 0.00 72 1023.8
20220522225913 59 329 5.0 5.0 0.00 0.00 0.00 71 1023.9
20220522225015 60 277 5.0 7.0 0.00 0.00 0.00 70 1023.9
20220522224717 60 287 8.0 5.0 0.00 0.00 0.00 69 1023.9
20220522224418 60 276 7.0 6.0 0.00 0.00 0.00 69 1023.9
20220522223819 61 260 8.0 10.0 0.00 0.00 0.00 65 1023.9
20220522223520 61 326 7.0 5.0 0.00 0.00 0.00 64 1024.0
20220522223219 61 316 7.0 5.0 0.00 0.00 0.00 63 1024.0
20220522222322 62 274 6.0 8.0 0.00 0.00 0.00 63 1023.9
20220522222023 62 266 4.0 7.0 0.00 0.00 0.00 62 1023.9
20220522221125 62 340 7.0 5.0 0.00 0.00 0.00 64 1024.0
20220522220527 62 274 6.0 8.0 0.00 0.00 0.00 63 1024.0
20220522215626 62 359 6.0 4.0 0.00 0.00 0.00 62 1024.1
20220522215028 61 270 2.0 0.0 0.00 0.00 0.00 63 1024.1
20220522214729 61 291 7.0 9.0 0.00 0.00 0.00 62 1024.1
20220522213832 61 38 1.0 2.0 0.00 0.00 0.00 63 1024.2
20220522212634 61 295 5.0 2.0 0.00 0.00 0.00 61 1024.4
20220522212334 60 316 4.0 5.0 0.00 0.00 0.00 67 1024.4
20220522205041 59 284 5.0 4.0 0.00 0.00 0.00 68 1024.6
20220522204742 58 302 5.0 4.0 0.00 0.00 0.00 69 1024.6
20220522204443 58 332 3.0 6.0 0.00 0.00 0.00 71 1024.6
20220522203845 58 277 6.0 4.0 0.00 0.00 0.00 74 1024.7
20220522203244 58 263 5.0 6.0 0.00 0.00 0.00 75 1024.8
20220522202646 59 284 8.0 6.0 0.00 0.00 0.00 73 1024.8
20220522202047 58 285 5.0 4.0 0.00 0.00 0.00 75 1024.8
20220522201749 58 315 7.0 5.0 0.00 0.00 0.00 71 1024.8
20220522200552 58 302 6.0 8.0 0.00 0.00 0.00 76 1024.7
20220522200251 58 257 6.0 6.0 0.00 0.00 0.00 81 1024.7
20220522194755 57 277 6.0 6.0 0.00 0.00 0.00 81 1024.6
20220522193858 56 248 6.0 7.0 0.00 0.00 0.00 84 1024.6
20220522192957 56 294 7.0 4.0 0.00 0.00 0.00 85 1024.7
20220522192658 56 312 4.0 2.0 0.00 0.00 0.00 86 1024.7
20220522192400 56 314 6.0 6.0 0.00 0.00 0.00 84 1024.7
20220522192101 56 312 7.0 6.0 0.00 0.00 0.00 86 1024.8
20220522190904 56 336 5.0 3.0 0.00 0.00 0.00 88 1024.8
20220522190303 56 257 7.0 7.0 0.00 0.00 0.00 88 1024.8
20220522190004 56 311 5.0 5.0 0.00 0.00 0.00 87 1024.8
20220522185738 56 283 6.0 6.0 0.00 0.00 0.00 88 1025.0
20220522185705 56 283 6.0 6.0 0.00 0.00 0.00 88 1025.0
20220522185107 56 319 4.0 4.0 0.00 0.00 0.00 87 1025.1
20220522184808 56 297 7.0 10.0 0.00 0.00 0.00 87 1025.0
20220522184509 56 338 6.0 6.0 0.00 0.00 0.00 91 1025.0
20220522183309 56 347 5.0 6.0 0.00 0.00 0.00 87 1025.1
20220522183010 56 18 5.0 3.0 0.00 0.00 0.00 89 1025.0
20220522182711 56 309 6.0 5.0 0.00 0.00 0.00 88 1025.0
20220522181515 55 322 8.0 7.0 0.00 0.00 0.00 88 1025.0
20220522181217 55 300 5.0 7.0 0.00 0.00 0.00 88 1025.1
20220522180016 55 290 6.0 2.0 0.00 0.00 0.00 88 1025.0
20220522175718 55 319 7.0 6.0 0.00 0.00 0.00 90 1025.0
20220522175420 55 340 4.0 4.0 0.00 0.00 0.00 88 1025.0
20220522175119 55 288 4.0 5.0 0.00 0.00 0.00 89 1025.0
20220522174521 56 333 3.0 7.0 0.00 0.00 0.00 90 1024.8
20220522174222 56 308 7.0 7.0 0.00 0.00 0.00 88 1024.8
20220522173923 56 277 6.0 7.0 0.00 0.00 0.00 88 1024.8
20220522173624 55 295 6.0 6.0 0.00 0.00 0.00 88 1024.8
20220522173023 55 295 7.0 4.0 0.00 0.00 0.00 89 1024.7
20220522171229 55 20 4.0 5.0 0.00 0.00 0.00 89 1025.0
20220522170631 54 309 2.0 2.0 0.00 0.00 0.00 89 1025.0
20220522170030 54 312 5.0 6.0 0.00 0.00 0.00 89 1025.1
20220522165730 54 321 2.0 2.0 0.00 0.00 0.00 89 1025.1
20220522165132 54 263 5.0 4.0 0.00 0.00 0.00 91 1025.0
20220522164833 54 304 6.0 6.0 0.00 0.00 0.00 90 1025.1
20220522164534 54 297 4.0 6.0 0.00 0.00 0.00 90 1025.1
20220522163637 53 336 3.0 3.0 0.00 0.00 0.00 89 1025.1
20220522163036 54 6 7.0 1.0 0.00 0.00 0.00 89 1025.1
20220522162737 54 0 4.0 5.0 0.00 0.00 0.00 88 1025.1
20220522162438 54 328 2.0 2.0 0.00 0.00 0.00 89 1025.1
20220522162139 53 280 4.0 5.0 0.00 0.00 0.00 90 1025.1
20220522161840 53 11 3.0 3.0 0.00 0.00 0.00 88 1025.1
20220522161541 53 312 5.0 3.0 0.00 0.00 0.00 89 1025.2
20220522161241 53 314 5.0 3.0 0.00 0.00 0.00 88 1025.2
20220522160942 53 319 4.0 5.0 0.00 0.00 0.00 89 1025.2
20220522160643 53 17 3.0 4.0 0.00 0.00 0.00 88 1025.3
20220522160341 53 349 4.0 3.0 0.00 0.00 0.00 88 1025.2
20220522160043 53 354 4.0 4.0 0.00 0.00 0.00 88 1025.2
20220522155743 53 263 4.0 2.0 0.00 0.00 0.00 87 1025.1
20220522155444 53 307 5.0 5.0 0.00 0.00 0.00 87 1025.2
20220522154846 52 318 3.0 2.0 0.00 0.00 0.00 87 1025.2
20220522154248 52 312 2.0 3.0 0.00 0.00 0.00 87 1025.2
20220522153949 52 311 3.0 3.0 0.00 0.00 0.00 88 1025.1
20220522153650 52 329 4.0 4.0 0.00 0.00 0.00 88 1025.1
20220522153347 52 72 2.0 3.0 0.00 0.00 0.00 87 1025.1
20220522152749 52 283 3.0 2.0 0.00 0.00 0.00 88 1025.2
20220522151254 51 346 3.0 4.0 0.00 0.00 0.00 86 1025.3
20220522150955 51 291 3.0 2.0 0.00 0.00 0.00 86 1025.2
20220522150055 51 239 5.0 2.0 0.00 0.00 0.00 83 1025.2
20220522145756 51 311 7.0 7.0 0.00 0.00 0.00 82 1025.2
20220522145457 51 298 6.0 4.0 0.00 0.00 0.00 82 1025.1
20220522145158 51 308 4.0 6.0 0.00 0.00 0.00 82 1025.1
20220522144559 51 318 6.0 5.0 0.00 0.00 0.00 82 1025.0
20220522144002 50 298 3.0 4.0 0.00 0.00 0.00 85 1025.0
20220522143400 50 304 4.0 3.0 0.00 0.00 0.00 86 1024.8
20220522143102 49 321 4.0 4.0 0.00 0.00 0.00 89 1024.8
20220522142205 47 83 0.0 0.0 0.00 0.00 0.00 93 1024.7
20220522141905 46 83 0.0 0.0 0.00 0.00 0.00 95 1024.7
20220522141307 45 108 1.0 1.0 0.00 0.00 0.00 95 1024.6
20220522140709 44 114 1.0 1.0 0.00 0.00 0.00 96 1024.6
20220522135509 42 128 4.0 4.0 0.00 0.00 0.00 97 1024.5
20220522135210 42 129 4.0 4.0 0.00 0.00 0.00 97 1024.6
20220522134911 42 125 4.0 3.0 0.00 0.00 0.00 97 1024.6
20220522134313 41 120 3.0 3.0 0.00 0.00 0.00 98 1024.5
20220522134015 40 124 5.0 4.0 0.00 0.00 0.00 98 1024.6
20220522133413 40 127 4.0 4.0 0.00 0.00 0.00 98 1024.5
20220522133114 40 132 4.0 4.0 0.00 0.00 0.00 98 1024.6
20220522132815 40 128 4.0 4.0 0.00 0.00 0.00 98 1024.6
20220522131918 39 120 3.0 4.0 0.00 0.00 0.00 98 1024.6
20220522131619 39 118 4.0 4.0 0.00 0.00 0.00 98 1024.6
20220522130419 39 113 3.0 3.0 0.00 0.00 0.00 97 1024.7
20220522125821 40 101 3.0 3.0 0.00 0.00 0.00 97 1024.7
20220522125522 39 110 3.0 3.0 0.00 0.00 0.00 97 1024.7
20220522124924 40 90 3.0 3.0 0.00 0.00 0.00 96 1024.7
20220522124625 41 105 2.0 4.0 0.00 0.00 0.00 96 1024.7
20220522124027 41 118 3.0 3.0 0.00 0.00 0.00 95 1024.7
20220522123728 41 114 5.0 4.0 0.00 0.00 0.00 95 1024.8
20220522123425 42 124 4.0 5.0 0.00 0.00 0.00 94 1024.8
20220522123127 42 111 3.0 3.0 0.00 0.00 0.00 92 1024.8
20220522122528 44 131 5.0 4.0 0.00 0.00 0.00 90 1024.8
20220522122229 44 118 0.0 3.0 0.00 0.00 0.00 89 1025.0
20220522121930 44 276 2.0 2.0 0.00 0.00 0.00 88 1024.8
20220522121631 44 298 2.0 4.0 0.00 0.00 0.00 88 1024.8
20220522121332 44 278 4.0 3.0 0.00 0.00 0.00 87 1024.8
20220522121033 44 321 4.0 4.0 0.00 0.00 0.00 87 1024.7
20220522120734 45 330 7.0 3.0 0.00 0.00 0.00 86 1024.7
20220522115834 46 129 3.0 2.0 0.00 0.00 0.00 84 1024.6
20220522115535 47 121 5.0 3.0 0.00 0.00 0.00 83 1024.6
20220522115236 47 73 6.0 2.0 0.00 0.00 0.00 82 1024.6
20220522114937 47 127 5.0 4.0 0.00 0.00 0.00 81 1024.5
20220522114638 47 120 5.0 4.0 0.00 0.00 0.00 81 1024.5
20220522114339 47 76 6.0 2.0 0.00 0.00 0.00 81 1024.4
20220522114040 47 125 4.0 6.0 0.00 0.00 0.00 80 1024.5
20220522113438 47 13 6.0 2.0 0.00 0.00 0.00 81 1024.5
20220522113139 47 132 5.0 4.0 0.00 0.00 0.00 81 1024.5
20220522112840 47 150 6.0 3.0 0.00 0.00 0.00 81 1024.5
20220522112541 47 136 5.0 5.0 0.00 0.00 0.00 81 1024.5